• Join FlightAware (Why Join?)
  • Login
  • US Flag 
09:07AM EST


 

Airport Tracker/Info


-or-


 

Live Flight TrackerFlight Track Log ✈ EGF9806 ✈ 02-May-2012 ✈ KABI - KABI

Flight Track Log - Related Links

Times and Time Zones

All times are in EDT time to prevent confusion due to time zone crossing. See the EGF9806 flight status page for this flight to view local times or setup timezone preferences in your user account.

Time Position Orientation Groundspeed Altitude Reporting Facility
EDT Latitude Longitude Course Direction KTS MPH feet Rate Location/Type
09:32PM 32.4347 -99.7911 174° South  Level FlightAware Approximate
09:33PM 32.3081 -99.7756 291° West 192 221 8,600  Level Fort Worth Center
09:34PM 32.3317 -99.8475 292° West 189 217 11,800 2,100 Climbing Fort Worth Center
09:35PM 32.3533 -99.9119 291° West 210 242 12,800 1,920 Climbing Fort Worth Center
09:36PM 32.3769 -99.9839 291° West 229 264 15,700 2,400 Climbing Fort Worth Center
09:37PM 32.4006 -100.0561 291° West 229 264 17,600 2,100 Climbing Fort Worth Center
09:38PM 32.4261 -100.1331 290° West 240 276 19,900 1,200 Climbing Fort Worth Center
09:39PM 32.4533 -100.2225 272° West 263 303 20,000  Climbing Fort Worth Center
09:40PM 32.4567 -100.3408 265° West 324 373 20,000  Level Fort Worth Center
09:41PM 32.4475 -100.4683 262° West 357 411 20,000  Level Fort Worth Center
09:42PM 32.4342 -100.5811 160° South 368 423 20,000  Level Fort Worth Center
09:43PM 32.3578 -100.5489 96° East 225 259 20,000 -180 Level Fort Worth Center
09:44PM 32.3464 -100.4208 94° East 197 227 19,700 -1,740 Descending Fort Worth Center
09:45PM 32.3389 -100.2950 95° East 296 341 16,600 -2,760 Descending Fort Worth Center
09:46PM 32.3292 -100.1719 108° East 337 388 14,200 -2,160 Descending Fort Worth Center
09:47PM 32.3000 -100.0653 113° Southeast 348 400 12,300 -1,860 Descending Fort Worth Center
09:48PM 32.2644 -99.9683 117° Southeast 340 391 10,500 -1,800 Descending Fort Worth Center
09:49PM 32.2267 -99.8814 110° East 311 358 8,700 -1,920 Descending Fort Worth Center
09:50PM 32.2011 -99.7972 90° East 288 331 6,700 -1,920 Descending Fort Worth Center
09:51PM 32.2008 -99.7039 32° Northeast 275 316 4,900 -1,320 Descending Fort Worth Center
09:52PM 32.2517 -99.6658 352° North 240 276 4,100 -600 Descending Fort Worth Center
09:53PM 32.3078 -99.6747 359° North 155 178 3,700 -900 Descending Fort Worth Center
09:54PM 32.3619 -99.6761 North 174 200 2,400 -540 Descending Fort Worth Center
09:55PM 32.4164 -99.6700 93° East 185 213 2,700 780 Climbing Fort Worth Center
09:56PM 32.4133 -99.6108 131° Southeast 145 167 4,000 600 Climbing Fort Worth Center
09:57PM 32.3744 -99.5583 177° South 133 153 4,000  Level Fort Worth Center
09:58PM 32.3203 -99.5547 177° South 146 168 4,000  Level Fort Worth Center
09:59PM 32.2639 -99.5508 177° South 178 205 4,000  Level Fort Worth Center